Time;durP1;ratioP1;P1;durP2;ratioP2;P2;SDS_P1;SDS_P2;PMS_P1;PMS_P2;Temp;Humidity;BMP_temperature;BMP_pressure;BME280_temperature;BME280_humidity;BME280_pressure;Samples;Min_cycle;Max_cycle;Signal;HPM_P1;HPM_P2
2024/02/16 00:01:58;;;;;;;3.50;3.20;;;;;;;11.72;100.00;101221.41;6116977;28;20239;-68
2024/02/16 00:05:19;;;;;;;3.57;3.27;;;;;;;11.62;100.00;101215.09;6122183;28;20224;-67
2024/02/16 00:08:42;;;;;;;4.00;3.67;;;;;;;11.60;100.00;101208.13;6128532;28;20231;-68
2024/02/16 00:12:06;;;;;;;8.60;3.60;;;;;;;11.74;100.00;101208.66;6128202;28;20227;-68
2024/02/16 00:15:27;;;;;;;3.60;3.30;;;;;;;11.70;100.00;101204.50;6126483;28;20231;-68
2024/02/16 00:18:47;;;;;;;3.87;3.57;;;;;;;11.63;100.00;101192.50;6117896;28;20231;-68
2024/02/16 00:22:09;;;;;;;3.43;3.13;;;;;;;11.72;100.00;101199.81;6122863;28;20228;-68
2024/02/16 00:25:31;;;;;;;3.43;3.13;;;;;;;11.66;100.00;101189.53;6121096;28;20605;-68
2024/02/16 00:28:52;;;;;;;4.03;3.63;;;;;;;11.56;100.00;101183.22;6130533;28;20231;-68
2024/02/16 00:32:13;;;;;;;5.30;3.83;;;;;;;11.62;100.00;101177.28;6120087;28;20326;-68
2024/02/16 00:35:34;;;;;;;3.70;3.37;;;;;;;11.49;100.00;101176.66;6120669;28;20606;-67
2024/02/16 00:38:55;;;;;;;3.83;3.50;;;;;;;11.43;100.00;101173.66;6130283;28;20242;-68
2024/02/16 00:42:17;;;;;;;3.33;3.03;;;;;;;11.47;100.00;101169.69;6123504;28;20238;-68
2024/02/16 00:45:41;;;;;;;5.03;3.27;;;;;;;11.59;100.00;101168.59;6125187;28;20230;-68
2024/02/16 00:49:02;;;;;;;5.30;3.30;;;;;;;11.49;100.00;101160.47;6128449;28;20238;-67
2024/02/16 00:52:23;;;;;;;3.10;2.80;;;;;;;11.48;100.00;101152.47;6119118;28;20683;-68
2024/02/16 00:55:45;;;;;;;5.03;3.33;;;;;;;11.45;100.00;101153.63;6122533;28;20231;-68
2024/02/16 00:59:08;;;;;;;2.97;2.73;;;;;;;11.47;100.00;101159.75;6127414;28;20243;-69
2024/02/16 01:02:31;;;;;;;3.07;2.77;;;;;;;11.35;100.00;101165.38;6122646;28;20602;-68
2024/02/16 01:05:52;;;;;;;3.27;2.83;;;;;;;11.30;100.00;101159.50;6127508;28;22193;-68
2024/02/16 01:09:13;;;;;;;6.13;3.30;;;;;;;11.37;100.00;101148.03;6125942;28;20252;-68
2024/02/16 01:12:37;;;;;;;8.13;3.07;;;;;;;11.31;100.00;101143.16;6124789;28;20231;-68
2024/02/16 01:15:59;;;;;;;3.80;3.50;;;;;;;11.37;100.00;101139.09;6128180;28;20652;-68
2024/02/16 01:19:20;;;;;;;3.47;2.40;;;;;;;11.28;100.00;101152.38;6120438;28;20239;-68
2024/02/16 01:22:41;;;;;;;3.20;2.60;;;;;;;11.26;100.00;101153.53;6122612;28;20250;-67
2024/02/16 01:26:02;;;;;;;3.30;2.93;;;;;;;11.23;100.00;101153.78;6127595;28;20246;-67
2024/02/16 01:29:23;;;;;;;4.40;2.97;;;;;;;11.22;100.00;101163.72;6104121;28;20771;-67
2024/02/16 01:32:45;;;;;;;2.80;2.60;;;;;;;11.33;100.00;101156.56;6113412;28;20235;-68
2024/02/16 01:36:07;;;;;;;2.77;2.53;;;;;;;11.32;100.00;101153.00;6109132;28;20235;-68
2024/02/16 01:39:27;;;;;;;3.30;3.00;;;;;;;11.23;100.00;101145.69;6130242;28;20247;-68
2024/02/16 01:42:48;;;;;;;2.90;2.60;;;;;;;11.29;100.00;101145.16;6122135;28;20234;-68
2024/02/16 01:46:09;;;;;;;3.43;3.13;;;;;;;11.14;100.00;101143.78;6119606;28;20250;-68
2024/02/16 01:49:31;;;;;;;3.10;2.83;;;;;;;11.12;100.00;101133.13;6122288;28;20235;-67
2024/02/16 01:52:53;;;;;;;3.17;2.70;;;;;;;11.08;100.00;101142.47;6117252;28;20231;-67
2024/02/16 01:56:14;;;;;;;3.53;3.10;;;;;;;11.06;100.00;101139.06;6125451;28;20235;-68
2024/02/16 01:59:40;;;;;;;3.10;2.90;;;;;;;11.12;100.00;101138.53;6127915;28;20240;-67
2024/02/16 02:03:00;;;;;;;3.03;2.77;;;;;;;11.13;100.00;101132.16;6121898;28;20243;-68
2024/02/16 02:06:23;;;;;;;4.20;2.90;;;;;;;11.09;100.00;101124.47;6125385;28;20258;-68
2024/02/16 02:09:44;;;;;;;2.90;2.70;;;;;;;11.15;100.00;101113.13;6132029;28;20235;-68
2024/02/16 02:13:05;;;;;;;3.60;2.60;;;;;;;11.21;100.00;101102.66;6129412;28;20239;-68
2024/02/16 02:16:27;;;;;;;3.77;3.20;;;;;;;11.19;100.00;101093.84;6110259;28;20255;-68
2024/02/16 02:19:48;;;;;;;5.43;3.73;;;;;;;11.26;100.00;101089.59;6120932;28;20322;-68
2024/02/16 02:23:11;;;;;;;3.30;3.00;;;;;;;11.09;100.00;101090.25;6131537;28;20235;-69
2024/02/16 02:26:32;;;;;;;3.10;2.83;;;;;;;11.09;100.00;101092.94;6131294;28;20388;-67
2024/02/16 02:29:56;;;;;;;3.70;2.77;;;;;;;11.05;100.00;101085.25;6126066;28;20610;-69
2024/02/16 02:33:17;;;;;;;4.87;2.90;;;;;;;11.00;100.00;101082.09;6120782;28;20238;-68
2024/02/16 02:36:37;;;;;;;3.33;2.33;;;;;;;11.06;100.00;101090.50;6128998;28;20226;-68
2024/02/16 02:40:00;;;;;;;6.47;3.53;;;;;;;11.01;100.00;101081.09;6129357;28;21263;-68
2024/02/16 02:43:22;;;;;;;5.13;3.00;;;;;;;10.97;100.00;101080.50;6127497;28;20517;-68
2024/02/16 02:46:43;;;;;;;3.83;3.53;;;;;;;10.96;100.00;101078.81;6111151;28;20239;-68
2024/02/16 02:50:04;;;;;;;4.70;3.17;;;;;;;10.92;100.00;101080.06;6127068;28;20227;-69
2024/02/16 02:53:25;;;;;;;5.83;3.30;;;;;;;10.88;100.00;101073.22;6125705;28;20259;-68
2024/02/16 02:56:47;;;;;;;3.43;3.10;;;;;;;10.90;100.00;101057.78;6128344;28;20231;-68
2024/02/16 03:00:11;;;;;;;5.37;3.33;;;;;;;10.84;100.00;101061.00;6120688;28;20633;-68
2024/02/16 03:03:33;;;;;;;2.83;2.60;;;;;;;10.86;100.00;101055.47;6127437;28;20310;-68
2024/02/16 03:06:54;;;;;;;2.67;2.47;;;;;;;10.86;100.00;101050.06;6125983;28;20259;-67
2024/02/16 03:10:20;;;;;;;5.57;2.83;;;;;;;10.90;100.00;101046.13;6127129;28;20649;-68
2024/02/16 03:13:43;;;;;;;4.00;2.87;;;;;;;10.88;100.00;101046.25;6130415;28;20227;-68
2024/02/16 03:17:04;;;;;;;8.23;3.07;;;;;;;10.88;100.00;101035.47;6127790;28;20326;-68
2024/02/16 03:20:25;;;;;;;3.87;2.67;;;;;;;10.91;100.00;101031.66;6123877;28;20330;-67
2024/02/16 03:23:46;;;;;;;4.17;3.10;;;;;;;10.96;100.00;101034.78;6131925;28;20235;-68
2024/02/16 03:27:07;;;;;;;2.97;2.30;;;;;;;10.93;100.00;101014.31;6122747;28;20227;-67
2024/02/16 03:30:29;;;;;;;2.73;2.50;;;;;;;10.94;100.00;101013.34;6123930;28;20239;-68
2024/02/16 03:33:52;;;;;;;2.70;2.50;;;;;;;11.06;100.00;101008.69;6127854;28;20231;-68
2024/02/16 03:37:13;;;;;;;4.33;2.73;;;;;;;11.11;100.00;101007.31;6128199;28;20612;-68
2024/02/16 03:40:36;;;;;;;3.10;2.83;;;;;;;11.06;100.00;101014.97;6127751;28;20511;-68
2024/02/16 03:43:58;;;;;;;3.40;3.10;;;;;;;11.01;100.00;101006.41;6129051;28;20235;-68
2024/02/16 03:47:20;;;;;;;2.17;2.07;;;;;;;11.07;100.00;101008.59;6121106;28;20231;-68
2024/02/16 03:50:41;;;;;;;3.27;2.40;;;;;;;11.14;100.00;101015.13;6122213;28;20526;-67
2024/02/16 03:54:03;;;;;;;3.83;2.53;;;;;;;11.04;100.00;101018.78;6128801;28;20239;-67
2024/02/16 03:57:25;;;;;;;2.63;2.43;;;;;;;11.08;100.00;101012.97;6127168;28;20231;-68
2024/02/16 04:00:48;;;;;;;3.63;2.83;;;;;;;11.12;100.00;101014.41;6117336;28;20239;-67
2024/02/16 04:04:10;;;;;;;2.93;2.70;;;;;;;11.08;100.00;101004.03;6124174;28;20258;-67
2024/02/16 04:07:31;;;;;;;3.33;2.40;;;;;;;11.09;100.00;101012.00;6123618;28;20239;-67
2024/02/16 04:10:52;;;;;;;2.37;1.80;;;;;;;11.05;100.00;101010.56;6120958;28;20607;-67
2024/02/16 04:14:14;;;;;;;2.47;2.27;;;;;;;11.10;100.00;101007.44;6128002;28;20235;-68
2024/02/16 04:17:34;;;;;;;2.60;2.33;;;;;;;11.08;100.00;100996.78;6119086;28;20812;-68
2024/02/16 04:20:57;;;;;;;3.93;2.23;;;;;;;11.13;100.00;100988.28;6117747;28;20235;-67
2024/02/16 04:24:18;;;;;;;3.27;2.37;;;;;;;11.21;100.00;101000.09;6129193;28;20239;-68
2024/02/16 04:27:39;;;;;;;2.47;2.27;;;;;;;11.15;100.00;100997.97;6126069;28;20313;-67
2024/02/16 04:31:00;;;;;;;2.27;2.07;;;;;;;11.23;100.00;101003.53;6124726;28;20232;-68
2024/02/16 04:34:21;;;;;;;2.13;2.03;;;;;;;11.26;100.00;101002.41;6128543;28;20273;-68
2024/02/16 04:37:44;;;;;;;2.50;2.10;;;;;;;11.20;100.00;100997.56;6121784;28;20325;-67
2024/02/16 04:41:06;;;;;;;2.30;2.10;;;;;;;11.28;100.00;100997.72;6127792;28;20238;-68
2024/02/16 04:44:26;;;;;;;2.10;2.00;;;;;;;11.22;100.00;100996.41;6130731;28;20314;-68
2024/02/16 04:47:48;;;;;;;2.43;2.10;;;;;;;11.30;100.00;100992.19;6113378;28;20236;-68
2024/02/16 04:51:09;;;;;;;2.30;1.93;;;;;;;11.32;100.00;100998.28;6120380;28;20625;-68
2024/02/16 04:54:31;;;;;;;3.43;2.63;;;;;;;11.33;100.00;100998.16;6123207;28;20238;-67
2024/02/16 04:57:52;;;;;;;4.97;2.37;;;;;;;11.31;100.00;100996.56;6125040;28;20231;-67
2024/02/16 05:01:14;;;;;;;3.63;2.20;;;;;;;11.24;100.00;100991.72;6120856;28;20310;-68
2024/02/16 05:04:34;;;;;;;3.40;2.50;;;;;;;11.26;100.00;100991.59;6128613;28;20246;-67
2024/02/16 05:07:55;;;;;;;2.37;2.07;;;;;;;11.25;100.00;100985.34;6098683;28;20231;-68
2024/02/16 05:11:17;;;;;;;3.00;2.70;;;;;;;11.28;100.00;100985.06;6126002;28;20235;-69
2024/02/16 05:14:38;;;;;;;3.43;3.10;;;;;;;11.32;100.00;100984.78;6131403;28;20350;-67
2024/02/16 05:17:59;;;;;;;3.83;2.17;;;;;;;11.27;100.00;100987.91;6124081;28;20239;-68
2024/02/16 05:21:21;;;;;;;5.20;2.73;;;;;;;11.30;100.00;100984.09;6124391;28;20234;-67
2024/02/16 05:24:42;;;;;;;5.43;2.73;;;;;;;11.25;100.00;100982.66;6121386;28;20235;-67
2024/02/16 05:28:04;;;;;;;3.07;2.20;;;;;;;11.29;100.00;100983.22;6124130;28;20243;-68
2024/02/16 05:31:25;;;;;;;3.43;1.90;;;;;;;11.31;100.00;100977.69;6118708;28;20231;-67
2024/02/16 05:34:46;;;;;;;3.57;2.03;;;;;;;11.25;100.00;100966.47;6126007;28;20605;-68
2024/02/16 05:38:20;;;;;;;2.57;1.60;;;;;;;11.23;100.00;100967.59;6124820;28;20236;-68
2024/02/16 05:41:42;;;;;;;2.57;2.37;;;;;;;11.22;100.00;100974.00;6099895;28;20681;-67
2024/02/16 05:45:06;;;;;;;4.40;2.37;;;;;;;11.16;100.00;100966.41;6127164;28;20231;-69
2024/02/16 05:48:30;;;;;;;3.03;2.00;;;;;;;11.22;100.00;100968.59;6123953;28;20573;-67
2024/02/16 05:52:17;;;;;;;1.90;1.53;;;;;;;11.21;100.00;100965.03;6104939;28;20718;-68
2024/02/16 05:55:38;;;;;;;3.40;2.37;;;;;;;11.22;100.00;100972.13;6118518;28;20470;-67
2024/02/16 05:58:58;;;;;;;3.03;2.33;;;;;;;11.17;100.00;100973.53;6131030;28;20230;-67
2024/02/16 06:02:21;;;;;;;5.77;2.63;;;;;;;11.18;100.00;100980.66;6114665;28;20239;-67
2024/02/16 06:05:44;;;;;;;4.67;2.23;;;;;;;11.19;100.00;100987.75;6126856;28;20310;-68
2024/02/16 06:09:07;;;;;;;4.43;2.57;;;;;;;11.23;100.00;100972.97;6133751;28;20230;-69
2024/02/16 06:12:28;;;;;;;2.47;2.00;;;;;;;11.16;100.00;100982.59;6125429;28;20516;-68
2024/02/16 06:15:49;;;;;;;2.33;2.13;;;;;;;11.15;100.00;100983.63;6120531;28;20231;-68
2024/02/16 06:19:12;;;;;;;2.23;2.03;;;;;;;11.12;100.00;100981.19;6127910;28;20259;-68
2024/02/16 06:22:33;;;;;;;2.63;2.43;;;;;;;11.12;100.00;100976.63;6121739;28;20231;-68
2024/02/16 06:25:54;;;;;;;3.47;2.03;;;;;;;11.08;100.00;100971.66;6129859;28;20251;-68
2024/02/16 06:29:15;;;;;;;3.47;2.70;;;;;;;11.04;100.00;100970.22;6129334;28;20561;-68
2024/02/16 06:32:36;;;;;;;3.80;2.17;;;;;;;11.02;100.00;100972.19;6119502;28;20242;-68
2024/02/16 06:35:59;;;;;;;5.57;2.50;;;;;;;11.02;100.00;100972.19;6119028;28;20227;-67
2024/02/16 06:39:19;;;;;;;4.43;2.87;;;;;;;11.01;100.00;100981.31;6130858;28;20263;-68
2024/02/16 06:42:41;;;;;;;4.33;2.67;;;;;;;10.95;100.00;100979.16;6123215;28;20239;-67
2024/02/16 06:46:02;;;;;;;4.43;3.27;;;;;;;10.96;100.00;100984.41;6114658;28;20598;-68
2024/02/16 06:49:23;;;;;;;5.40;3.07;;;;;;;10.92;100.00;100988.34;6122744;28;20243;-67
2024/02/16 06:52:45;;;;;;;3.93;2.40;;;;;;;10.98;100.00;100985.13;6121704;28;21252;-67
2024/02/16 06:56:07;;;;;;;5.33;2.30;;;;;;;10.96;100.00;100989.78;6118670;28;20227;-67
2024/02/16 06:59:28;;;;;;;3.30;2.73;;;;;;;10.98;100.00;100990.50;6136023;28;20823;-68
2024/02/16 07:02:49;;;;;;;2.73;2.53;;;;;;;10.96;100.00;100988.94;6118319;28;20523;-68
2024/02/16 07:06:13;;;;;;;5.07;2.53;;;;;;;10.93;100.00;100976.56;6111845;28;20234;-66
2024/02/16 07:09:36;;;;;;;3.57;2.50;;;;;;;10.87;100.00;100981.66;6126109;28;20246;-67
2024/02/16 07:12:56;;;;;;;3.57;2.13;;;;;;;10.87;100.00;100987.91;6121004;28;20231;-68
2024/02/16 07:16:20;;;;;;;12.10;3.20;;;;;;;10.93;100.00;100994.63;6114097;28;20654;-68
2024/02/16 07:19:44;;;;;;;12.53;3.03;;;;;;;10.98;100.00;100995.91;6125324;28;20322;-68
2024/02/16 07:23:05;;;;;;;7.47;2.80;;;;;;;11.02;100.00;101005.44;6120447;28;20515;-67
2024/02/16 07:26:27;;;;;;;3.37;2.73;;;;;;;11.03;100.00;101006.28;6117010;28;20235;-67
2024/02/16 07:29:48;;;;;;;4.80;2.60;;;;;;;11.15;100.00;100995.25;6129443;28;20318;-67
2024/02/16 07:33:09;;;;;;;4.67;2.30;;;;;;;11.19;100.00;101007.50;6122765;28;20235;-68
2024/02/16 07:36:31;;;;;;;2.83;2.63;;;;;;;11.20;100.00;101003.78;6113560;28;20728;-67
2024/02/16 07:39:52;;;;;;;3.10;2.53;;;;;;;11.22;100.00;101006.38;6127629;28;20243;-67
2024/02/16 07:43:17;;;;;;;5.60;2.50;;;;;;;11.38;100.00;101003.13;6123274;28;20239;-68
2024/02/16 07:46:41;;;;;;;2.60;2.00;;;;;;;11.36;100.00;100991.63;6114563;28;20617;-67
2024/02/16 07:50:03;;;;;;;2.87;2.67;;;;;;;11.50;100.00;101000.19;6123384;28;20227;-68
2024/02/16 07:53:24;;;;;;;3.73;2.33;;;;;;;11.51;100.00;101001.91;6124953;28;20334;-67
2024/02/16 07:56:45;;;;;;;6.43;2.73;;;;;;;11.48;100.00;101010.25;6112612;28;20250;-68
2024/02/16 08:00:10;;;;;;;3.93;2.30;;;;;;;11.62;100.00;101017.13;6106424;28;20342;-69
2024/02/16 08:03:33;;;;;;;5.37;3.23;;;;;;;11.63;100.00;101016.13;6123384;28;20238;-69
2024/02/16 08:06:54;;;;;;;4.23;2.33;;;;;;;11.69;100.00;101008.34;6122987;28;20598;-70
2024/02/16 08:10:15;;;;;;;5.37;3.13;;;;;;;11.92;100.00;101003.53;6119994;28;20283;-69
2024/02/16 08:13:36;;;;;;;5.60;2.53;;;;;;;11.95;100.00;101006.78;6120795;28;23274;-68
2024/02/16 08:16:59;;;;;;;6.60;3.03;;;;;;;12.18;100.00;100991.16;6110487;28;20702;-68
2024/02/16 08:20:20;;;;;;;4.73;3.10;;;;;;;12.07;100.00;100991.31;6114022;28;20684;-68
2024/02/16 08:23:41;;;;;;;3.00;2.60;;;;;;;12.02;100.00;100989.03;6121044;28;20547;-67
2024/02/16 08:27:04;;;;;;;4.70;2.50;;;;;;;11.86;100.00;100979.78;6107936;28;20235;-67
2024/02/16 08:30:25;;;;;;;6.83;3.00;;;;;;;11.65;100.00;100974.50;6108087;28;20584;-68
2024/02/16 08:33:47;;;;;;;2.73;1.90;;;;;;;11.60;100.00;100965.13;6125426;28;20749;-69
2024/02/16 08:37:09;;;;;;;3.70;2.27;;;;;;;11.52;100.00;100960.41;6112700;28;20605;-67
2024/02/16 08:40:30;;;;;;;2.17;1.90;;;;;;;11.59;100.00;100976.91;6118728;28;20239;-68
2024/02/16 08:43:51;;;;;;;3.17;2.23;;;;;;;11.61;100.00;100985.69;6124828;28;20227;-67
2024/02/16 08:47:12;;;;;;;2.57;1.93;;;;;;;11.69;100.00;100986.75;6112564;28;20227;-67
2024/02/16 08:50:34;;;;;;;3.03;2.30;;;;;;;11.71;100.00;100992.84;6114726;28;20231;-67
2024/02/16 08:53:55;;;;;;;3.73;2.00;;;;;;;11.76;100.00;100978.94;6121488;28;20264;-68
2024/02/16 08:57:17;;;;;;;2.80;2.23;;;;;;;11.78;100.00;100982.34;6114281;28;20223;-67
2024/02/16 09:00:38;;;;;;;2.87;2.40;;;;;;;11.88;100.00;100980.50;6112011;28;20318;-69
2024/02/16 09:04:00;;;;;;;5.10;2.10;;;;;;;11.78;100.00;100974.25;6118056;28;20251;-68
2024/02/16 09:07:24;;;;;;;2.27;2.07;;;;;;;11.93;100.00;100976.38;6109367;28;23875;-69
2024/02/16 09:10:45;;;;;;;2.80;2.50;;;;;;;12.03;100.00;100987.19;6112523;28;20649;-68
2024/02/16 09:14:05;;;;;;;5.80;3.27;;;;;;;12.02;100.00;100972.81;6117585;28;20235;-67
2024/02/16 09:17:27;;;;;;;2.17;1.97;;;;;;;12.02;100.00;100974.66;6103770;28;21507;-67
2024/02/16 09:20:48;;;;;;;5.40;2.53;;;;;;;12.11;100.00;100973.81;6119168;28;20227;-67
2024/02/16 09:24:17;;;;;;;3.20;2.07;;;;;;;12.11;100.00;100975.66;6124541;28;20317;-67
2024/02/16 09:27:40;;;;;;;4.17;2.40;;;;;;;11.97;100.00;100971.56;6123774;28;20349;-66
2024/02/16 09:31:02;;;;;;;4.57;2.20;;;;;;;11.81;100.00;100971.25;6103943;28;20243;-68
2024/02/16 09:34:23;;;;;;;2.87;2.30;;;;;;;11.69;100.00;100972.38;6119262;28;20239;-68
2024/02/16 09:37:44;;;;;;;3.50;1.93;;;;;;;11.77;100.00;100969.81;6119401;28;20242;-68
2024/02/16 09:41:06;;;;;;;3.23;1.90;;;;;;;11.85;100.00;100964.56;6118913;28;20231;-68
2024/02/16 09:44:29;;;;;;;6.43;2.00;;;;;;;11.95;100.00;100968.13;6125432;28;20282;-68
2024/02/16 09:47:51;;;;;;;4.97;2.27;;;;;;;11.99;100.00;100975.78;6120868;28;20577;-67
2024/02/16 09:51:12;;;;;;;2.07;1.83;;;;;;;11.95;100.00;100984.34;6123027;28;20227;-67
2024/02/16 09:54:34;;;;;;;3.03;2.53;;;;;;;12.18;100.00;100974.09;6130506;28;20239;-68
2024/02/16 09:58:04;;;;;;;4.37;2.63;;;;;;;12.31;100.00;100980.03;6122552;28;20268;-67
2024/02/16 10:01:25;;;;;;;3.10;2.23;;;;;;;12.43;100.00;100978.91;6128614;28;20235;-67
2024/02/16 10:04:46;;;;;;;3.97;2.50;;;;;;;12.66;100.00;100974.84;6134414;28;20239;-67
2024/02/16 10:08:12;;;;;;;2.63;1.60;;;;;;;12.71;100.00;100975.25;6131795;28;20273;-68
2024/02/16 10:11:33;;;;;;;2.40;2.20;;;;;;;12.87;100.00;100961.94;6128333;28;20240;-66
2024/02/16 10:14:58;;;;;;;2.23;1.97;;;;;;;13.03;100.00;100974.84;6129394;28;20513;-68
2024/02/16 10:18:20;;;;;;;2.77;1.83;;;;;;;13.14;100.00;100975.50;6124789;28;20920;-68
2024/02/16 10:21:41;;;;;;;5.13;2.23;;;;;;;13.78;100.00;100978.13;6115290;28;20263;-67
2024/02/16 10:25:11;;;;;;;3.10;1.50;;;;;;;15.67;100.00;100982.56;6129473;28;20507;-68
2024/02/16 10:28:32;;;;;;;2.27;2.13;;;;;;;14.80;100.00;100973.88;6130923;28;20243;-68
2024/02/16 10:31:55;;;;;;;5.57;1.80;;;;;;;14.60;100.00;100967.81;6125950;28;20544;-68
2024/02/16 10:35:18;;;;;;;3.57;1.73;;;;;;;14.80;100.00;100982.00;6126603;28;20227;-68
2024/02/16 10:38:42;;;;;;;3.23;1.87;;;;;;;14.12;100.00;100984.53;6129340;28;20235;-67
2024/02/16 10:42:04;;;;;;;1.87;1.40;;;;;;;14.00;100.00;100979.50;6116276;28;20242;-67
2024/02/16 10:45:25;;;;;;;2.20;2.00;;;;;;;13.98;100.00;100981.50;6125431;28;21004;-67
2024/02/16 10:48:48;;;;;;;5.70;2.00;;;;;;;14.09;100.00;100986.69;6128440;28;20231;-67
2024/02/16 10:52:09;;;;;;;3.27;2.17;;;;;;;13.94;100.00;100978.28;6124215;28;20243;-69
2024/02/16 10:55:31;;;;;;;2.30;2.00;;;;;;;14.13;100.00;100990.81;6112580;28;20253;-67
2024/02/16 10:58:52;;;;;;;3.20;2.27;;;;;;;14.80;100.00;100984.72;6124494;28;20234;-74
2024/02/16 11:02:13;;;;;;;3.70;1.83;;;;;;;14.44;100.00;100978.53;6120381;28;20700;-67
2024/02/16 11:05:37;;;;;;;2.97;2.50;;;;;;;14.52;100.00;100980.47;6116473;28;20239;-68
2024/02/16 11:09:02;;;;;;;2.37;1.93;;;;;;;14.59;100.00;100973.38;6134674;28;20223;-69
2024/02/16 11:12:23;;;;;;;3.17;2.20;;;;;;;14.60;100.00;100980.53;6133169;28;20271;-67
2024/02/16 11:15:44;;;;;;;8.03;2.50;;;;;;;14.70;100.00;100975.84;6122389;28;20239;-66
2024/02/16 11:19:08;;;;;;;2.73;2.13;;;;;;;14.83;100.00;100960.81;6127025;28;20282;-67
2024/02/16 11:22:30;;;;;;;2.63;1.80;;;;;;;14.84;100.00;100972.53;6124137;28;20235;-67
2024/02/16 11:25:52;;;;;;;2.47;1.53;;;;;;;15.01;100.00;100972.47;6129594;28;20240;-66
2024/02/16 11:29:12;;;;;;;2.50;1.80;;;;;;;14.91;100.00;100979.03;6117853;28;20235;-65
2024/02/16 11:32:34;;;;;;;4.57;2.00;;;;;;;14.87;100.00;100958.66;6124269;28;22020;-66
2024/02/16 11:35:57;;;;;;;3.77;1.67;;;;;;;14.84;100.00;100962.53;6124547;28;20235;-68
2024/02/16 11:39:20;;;;;;;4.50;1.73;;;;;;;14.75;100.00;100957.22;6133752;28;20326;-65
2024/02/16 11:42:41;;;;;;;3.03;2.80;;;;;;;14.74;100.00;100956.38;6128773;28;20232;-67
2024/02/16 11:46:12;;;;;;;1.73;1.63;;;;;;;14.71;100.00;100961.25;6123004;28;20254;-67
2024/02/16 11:49:33;;;;;;;2.20;2.07;;;;;;;14.74;100.00;100982.66;6132542;28;20234;-67
2024/02/16 11:52:55;;;;;;;1.73;1.60;;;;;;;14.73;100.00;100957.38;6121279;28;20319;-69
2024/02/16 11:56:24;;;;;;;4.00;1.90;;;;;;;15.08;100.00;100968.06;6128933;28;20231;-68
2024/02/16 11:59:45;;;;;;;2.03;1.77;;;;;;;15.13;100.00;100981.16;6124771;28;20352;-67
2024/02/16 12:03:07;;;;;;;2.23;2.03;;;;;;;15.26;100.00;100972.56;6124175;28;20239;-67
2024/02/16 12:06:31;;;;;;;2.03;1.43;;;;;;;15.26;100.00;100961.69;6121492;28;20318;-68
2024/02/16 12:09:57;;;;;;;2.10;1.43;;;;;;;15.26;100.00;100959.84;6122905;28;20310;-68
2024/02/16 12:13:20;;;;;;;5.30;3.00;;;;;;;15.03;100.00;100978.59;6127676;28;20235;-68
2024/02/16 12:16:41;;;;;;;2.90;2.27;;;;;;;15.05;100.00;100976.56;6120122;28;20231;-68
2024/02/16 12:20:03;;;;;;;6.47;2.30;;;;;;;14.93;100.00;100966.13;6129462;28;20601;-69
2024/02/16 12:23:24;;;;;;;2.83;2.33;;;;;;;14.96;100.00;100949.50;6128013;28;20239;-68
2024/02/16 12:26:45;;;;;;;3.03;2.03;;;;;;;14.94;100.00;100970.53;6121807;28;20262;-68
2024/02/16 12:30:09;;;;;;;4.33;2.97;;;;;;;14.92;100.00;100968.00;6118823;28;20231;-66
2024/02/16 12:33:29;;;;;;;3.27;1.50;;;;;;;15.01;100.00;100966.19;6124425;28;20661;-68
2024/02/16 12:36:50;;;;;;;1.90;1.80;;;;;;;15.05;100.00;100968.41;6125325;28;20512;-66
2024/02/16 12:40:12;;;;;;;2.93;2.30;;;;;;;15.05;100.00;100970.28;6128659;28;20550;-66
2024/02/16 12:43:33;;;;;;;4.07;1.83;;;;;;;15.05;100.00;100968.41;6125639;28;20255;-68
2024/02/16 12:46:55;;;;;;;3.53;2.40;;;;;;;14.90;100.00;100985.44;6123454;28;20673;-68
2024/02/16 12:50:17;;;;;;;5.07;2.43;;;;;;;14.88;100.00;100985.63;6122979;28;20254;-65
2024/02/16 12:53:41;;;;;;;4.47;2.87;;;;;;;14.91;100.00;100984.47;6130457;28;20239;-65
2024/02/16 12:57:02;;;;;;;3.27;2.73;;;;;;;14.86;100.00;100994.94;6118000;28;20235;-66
2024/02/16 13:00:23;;;;;;;3.00;2.47;;;;;;;14.81;100.00;100986.44;6732879;23;20309;-67
2024/02/16 13:03:45;;;;;;;4.73;2.47;;;;;;;14.80;100.00;100992.88;6350879;23;20232;-67
2024/02/16 13:07:06;;;;;;;8.10;2.80;;;;;;;14.74;100.00;100985.38;6070544;29;20605;-67
2024/02/16 13:10:27;;;;;;;4.60;2.67;;;;;;;14.72;100.00;100992.81;6063923;29;20233;-67
2024/02/16 13:13:48;;;;;;;5.23;3.00;;;;;;;14.79;100.00;100999.31;6074589;29;20264;-66
2024/02/16 13:17:09;;;;;;;5.57;2.57;;;;;;;14.72;100.00;100998.25;6074881;29;20236;-67
2024/02/16 13:20:31;;;;;;;3.10;2.63;;;;;;;14.69;100.00;100998.56;6071991;29;20233;-66
2024/02/16 13:23:52;;;;;;;5.87;2.87;;;;;;;14.69;100.00;100996.69;6087052;29;20240;-66
2024/02/16 13:27:13;;;;;;;3.17;2.37;;;;;;;14.68;100.00;100988.72;6075417;29;20236;-67
2024/02/16 13:30:34;;;;;;;2.40;2.03;;;;;;;14.66;100.00;101007.03;6063339;29;21109;-65
2024/02/16 13:33:55;;;;;;;9.10;2.63;;;;;;;14.64;100.00;101006.34;6080752;29;20224;-66
2024/02/16 13:37:17;;;;;;;3.97;2.90;;;;;;;14.61;100.00;101007.50;6083109;29;20519;-66
2024/02/16 13:40:38;;;;;;;2.93;2.53;;;;;;;14.61;100.00;101004.78;6064520;29;20232;-66
2024/02/16 13:43:59;;;;;;;2.63;2.37;;;;;;;14.61;100.00;101006.63;6078714;29;20240;-67
2024/02/16 13:47:20;;;;;;;3.67;2.67;;;;;;;14.58;100.00;101020.53;6062606;29;20585;-66
2024/02/16 13:50:41;;;;;;;5.67;3.10;;;;;;;14.57;100.00;101008.84;6068809;29;20236;-66
2024/02/16 13:54:04;;;;;;;3.87;2.70;;;;;;;14.56;100.00;101003.56;6079614;29;20642;-66
2024/02/16 13:57:25;;;;;;;4.57;2.50;;;;;;;14.55;100.00;101019.00;6073826;29;20237;-66
2024/02/16 14:00:46;;;;;;;3.07;2.70;;;;;;;14.58;100.00;101025.97;6070010;29;21957;-66
2024/02/16 14:04:07;;;;;;;4.30;3.17;;;;;;;14.56;100.00;101019.84;6073083;29;20644;-66
2024/02/16 14:07:28;;;;;;;3.63;2.67;;;;;;;14.60;100.00;101026.66;6062235;29;20559;-67
2024/02/16 14:10:50;;;;;;;3.30;2.97;;;;;;;14.63;100.00;101029.03;6068355;29;20323;-66
2024/02/16 14:14:11;;;;;;;3.97;3.53;;;;;;;14.59;100.00;101030.38;6065112;29;20224;-66
2024/02/16 14:17:32;;;;;;;7.10;2.93;;;;;;;14.60;100.00;101027.53;6053111;29;20264;-65
2024/02/16 14:20:53;;;;;;;3.00;2.70;;;;;;;14.69;100.00;101029.25;6072252;29;20271;-66
2024/02/16 14:24:16;;;;;;;3.30;3.00;;;;;;;14.65;100.00;101035.16;6078345;29;20224;-67
2024/02/16 14:27:38;;;;;;;9.20;3.10;;;;;;;14.62;100.00;101033.63;6064201;29;20293;-66
2024/02/16 14:30:58;;;;;;;4.40;4.10;;;;;;;14.53;100.00;101039.16;6074657;29;20236;-66
2024/02/16 14:34:19;;;;;;;7.73;3.30;;;;;;;14.50;100.00;101036.75;6094298;29;20256;-66
2024/02/16 14:37:40;;;;;;;3.17;2.97;;;;;;;14.40;100.00;101069.38;6087305;29;20626;-66
2024/02/16 14:41:03;;;;;;;3.83;3.37;;;;;;;14.38;100.00;101064.13;6082772;29;20339;-66
2024/02/16 14:44:25;;;;;;;4.43;2.97;;;;;;;14.30;100.00;101074.91;6089600;29;20245;-65
2024/02/16 14:47:47;;;;;;;6.37;3.67;;;;;;;14.20;100.00;101063.25;6073412;29;20550;-66
2024/02/16 14:51:08;;;;;;;5.73;3.90;;;;;;;14.15;100.00;101070.13;6075154;29;20530;-67
2024/02/16 14:54:29;;;;;;;4.10;3.60;;;;;;;14.10;100.00;101094.97;6081409;29;20244;-66
2024/02/16 14:57:50;;;;;;;4.77;4.23;;;;;;;14.09;100.00;101093.28;6071438;29;20233;-66
2024/02/16 15:01:13;;;;;;;4.77;4.23;;;;;;;14.07;100.00;101089.88;6074595;29;20236;-67
2024/02/16 15:04:34;;;;;;;5.83;3.90;;;;;;;14.02;100.00;101103.03;6072802;29;20256;-67
2024/02/16 15:07:55;;;;;;;6.87;6.17;;;;;;;13.95;100.00;101101.09;6073599;29;20236;-66
2024/02/16 15:11:17;;;;;;;7.50;6.80;;;;;;;13.89;100.00;101110.69;6074336;29;20237;-67
2024/02/16 15:14:38;;;;;;;7.47;4.90;;;;;;;13.83;100.00;101105.03;6074572;29;20230;-66
2024/02/16 15:18:01;;;;;;;6.10;4.50;;;;;;;13.73;100.00;101134.88;6077619;29;20229;-66
2024/02/16 15:21:25;;;;;;;9.27;5.27;;;;;;;13.70;100.00;101112.66;6073143;29;20295;-67
2024/02/16 15:24:45;;;;;;;6.17;5.57;;;;;;;13.67;100.00;101113.81;6094596;29;20330;-66
2024/02/16 15:28:07;;;;;;;6.00;5.43;;;;;;;13.66;100.00;101127.50;6086818;29;20642;-67